Time;durP1;ratioP1;P1;durP2;ratioP2;P2;SDS_P1;SDS_P2;PMS_P1;PMS_P2;Temp;Humidity;BMP_temperature;BMP_pressure;BME280_temperature;BME280_humidity;BME280_pressure;Samples;Min_cycle;Max_cycle;Signal;HPM_P1;HPM_P2
2024/01/08 00:01:09;;;;;;;;;;;;;;;4.56;32.51;98420.22;5047739;28;19929;-88
2024/01/08 00:03:38;;;;;;;;;;;;;;;4.23;32.54;98418.56;5044328;28;19921;-86
2024/01/08 00:06:04;;;;;;;;;;;;;;;4.64;31.43;98433.13;5045550;28;19928;-86
2024/01/08 00:08:30;;;;;;;;;;;;;;;3.40;33.54;98431.91;5031291;28;19920;-86
2024/01/08 00:10:56;;;;;;;;;;;;;;;2.58;34.56;98430.31;5030981;28;20059;-86
2024/01/08 00:13:22;;;;;;;;;;;;;;;1.96;35.95;98442.66;5053145;28;19928;-86
2024/01/08 00:15:48;;;;;;;;;;;;;;;3.20;33.12;98438.38;5046192;28;20034;-86
2024/01/08 00:18:13;;;;;;;;;;;;;;;3.12;33.25;98440.91;5035202;28;19921;-85
2024/01/08 00:20:40;;;;;;;;;;;;;;;3.91;31.95;98437.50;5044754;28;19920;-85
2024/01/08 00:23:06;;;;;;;;;;;;;;;4.12;31.59;98441.56;5044076;28;20411;-85
2024/01/08 00:25:32;;;;;;;;;;;;;;;4.89;30.27;98442.75;5048780;28;19967;-85
2024/01/08 00:28:00;;;;;;;;;;;;;;;3.75;32.38;98444.25;5042120;28;19921;-85
2024/01/08 00:30:26;;;;;;;;;;;;;;;3.70;31.96;98438.88;5041541;28;19925;-86
2024/01/08 00:32:52;;;;;;;;;;;;;;;3.45;32.76;98448.16;5050970;28;20460;-85
2024/01/08 00:35:18;;;;;;;;;;;;;;;4.78;30.90;98449.50;5049647;28;20388;-85
2024/01/08 00:37:44;;;;;;;;;;;;;;;5.58;29.43;98458.06;5053082;28;19967;-86
2024/01/08 00:40:11;;;;;;;;;;;;;;;5.08;30.09;98456.31;5052681;28;20327;-85
2024/01/08 00:42:37;;;;;;;;;;;;;;;8.23;25.96;98445.38;5045585;28;19929;-85
2024/01/08 00:45:04;;;;;;;;;;;;;;;9.53;23.82;98440.22;5047507;28;19944;-85
2024/01/08 00:47:30;;;;;;;;;;;;;;;8.39;25.43;98453.94;5043854;28;20399;-85
2024/01/08 00:49:56;;;;;;;;;;;;;;;9.46;23.99;98452.81;5048709;28;19924;-85
2024/01/08 00:52:22;;;;;;;;;;;;;;;9.28;24.00;98451.25;5039113;28;20305;-85
2024/01/08 00:54:48;;;;;;;;;;;;;;;6.51;27.04;98457.41;5034727;28;19925;-85
2024/01/08 00:57:14;;;;;;;;;;;;;;;6.25;27.92;98453.69;5043674;28;20153;-85
2024/01/08 00:59:40;;;;;;;;;;;;;;;6.05;28.55;98468.53;5038878;28;19925;-85
2024/01/08 01:02:06;;;;;;;;;;;;;;;8.65;25.52;98457.47;5042674;28;19921;-85
2024/01/08 01:04:32;;;;;;;;;;;;;;;10.38;23.11;98447.16;5047379;28;19925;-85
2024/01/08 01:06:58;;;;;;;;;;;;;;;9.40;24.06;98456.88;5050580;28;19920;-85
2024/01/08 01:09:24;;;;;;;;;;;;;;;8.56;25.27;98465.72;5047471;28;19948;-85
2024/01/08 01:11:50;;;;;;;;;;;;;;;9.19;24.13;98462.25;5046922;28;20394;-85
2024/01/08 01:14:16;;;;;;;;;;;;;;;7.85;25.83;98464.25;5036335;28;19933;-85
2024/01/08 01:16:42;;;;;;;;;;;;;;;10.37;23.03;98464.78;5049417;28;20020;-85
2024/01/08 01:19:08;;;;;;;;;;;;;;;10.41;22.97;98468.47;5040092;28;20385;-85
2024/01/08 01:21:34;;;;;;;;;;;;;;;8.28;25.22;98470.66;5049394;28;19967;-85
2024/01/08 01:24:00;;;;;;;;;;;;;;;7.66;25.99;98474.63;5044677;28;19921;-85
2024/01/08 01:26:26;;;;;;;;;;;;;;;8.13;25.92;98483.94;5044054;28;20305;-85
2024/01/08 01:28:53;;;;;;;;;;;;;;;9.96;23.66;98483.91;5042398;28;19937;-85
2024/01/08 01:31:19;;;;;;;;;;;;;;;9.01;24.42;98482.56;5043784;28;19920;-85
2024/01/08 01:33:45;;;;;;;;;;;;;;;10.30;23.34;98480.16;5048239;28;19932;-85
2024/01/08 01:36:10;;;;;;;;;;;;;;;10.71;22.59;98479.41;5035613;28;19968;-85
2024/01/08 01:38:36;;;;;;;;;;;;;;;10.15;23.40;98495.25;5040121;28;19964;-85
2024/01/08 01:41:02;;;;;;;;;;;;;;;8.88;24.80;98498.06;5045291;28;19921;-85
2024/01/08 01:43:29;;;;;;;;;;;;;;;6.58;27.25;98497.91;5039146;28;19921;-85
2024/01/08 01:45:56;;;;;;;;;;;;;;;5.88;28.76;98503.78;5041990;28;19979;-85
2024/01/08 01:48:23;;;;;;;;;;;;;;;6.45;27.98;98494.09;5046146;28;19929;-85
2024/01/08 01:50:49;;;;;;;;;;;;;;;6.49;28.21;98495.09;5047774;28;19928;-85
2024/01/08 01:53:15;;;;;;;;;;;;;;;6.67;27.40;98496.88;5036222;28;19921;-85
2024/01/08 01:55:42;;;;;;;;;;;;;;;6.65;28.04;98499.06;5058308;28;20312;-85
2024/01/08 01:58:09;;;;;;;;;;;;;;;6.57;28.01;98499.81;5038537;28;20357;-85
2024/01/08 02:00:35;;;;;;;;;;;;;;;6.04;28.50;98505.09;5050228;28;20015;-85
2024/01/08 02:03:03;;;;;;;;;;;;;;;6.34;28.33;98506.34;5045347;28;19972;-85
2024/01/08 02:05:30;;;;;;;;;;;;;;;6.65;27.55;98507.25;5042774;28;19928;-85
2024/01/08 02:07:56;;;;;;;;;;;;;;;5.86;28.91;98521.56;5044456;28;19943;-85
2024/01/08 02:10:22;;;;;;;;;;;;;;;4.28;30.84;98516.31;5046496;28;19921;-84
2024/01/08 02:12:48;;;;;;;;;;;;;;;4.75;30.63;98518.06;5045471;28;19928;-85
2024/01/08 02:15:15;;;;;;;;;;;;;;;5.63;29.59;98519.78;5039596;28;19925;-85
2024/01/08 02:17:41;;;;;;;;;;;;;;;7.86;26.40;98511.53;5043425;28;19925;-85
2024/01/08 02:20:07;;;;;;;;;;;;;;;10.21;23.68;98509.59;5036837;28;19932;-85
2024/01/08 02:22:43;;;;;;;;;;;;;;;9.97;23.40;98518.38;5047672;28;19975;-85
2024/01/08 02:25:10;;;;;;;;;;;;;;;10.37;22.80;98516.13;5034007;28;19920;-85
2024/01/08 02:27:36;;;;;;;;;;;;;;;8.27;24.91;98517.47;5046277;28;19917;-85
2024/01/08 02:30:02;;;;;;;;;;;;;;;6.28;27.62;98540.28;5043041;28;19921;-85
2024/01/08 02:32:28;;;;;;;;;;;;;;;7.93;25.95;98522.81;5049648;28;20399;-85
2024/01/08 02:34:54;;;;;;;;;;;;;;;7.79;25.95;98525.66;5044483;28;19999;-85
2024/01/08 02:37:20;;;;;;;;;;;;;;;6.73;27.36;98530.28;5036511;28;20012;-85
2024/01/08 02:39:46;;;;;;;;;;;;;;;5.27;29.17;98534.06;5040400;28;19987;-85
2024/01/08 02:42:18;;;;;;;;;;;;;;;5.00;29.81;98538.59;5039416;28;19921;-85
2024/01/08 02:44:44;;;;;;;;;;;;;;;5.11;29.69;98535.41;5046646;28;19925;-85
2024/01/08 02:47:10;;;;;;;;;;;;;;;3.35;32.54;98544.03;5045105;28;19921;-85
2024/01/08 02:49:36;;;;;;;;;;;;;;;5.72;29.08;98542.50;5024901;28;19925;-85
2024/01/08 02:52:02;;;;;;;;;;;;;;;5.70;28.93;98541.97;5046941;28;19927;-85
2024/01/08 02:54:28;;;;;;;;;;;;;;;6.18;28.36;98548.69;5036258;28;20381;-85
2024/01/08 02:56:54;;;;;;;;;;;;;;;6.91;27.36;98541.03;5047260;28;19963;-85
2024/01/08 02:59:20;;;;;;;;;;;;;;;7.56;26.56;98540.50;5031976;28;20268;-85
2024/01/08 03:01:46;;;;;;;;;;;;;;;6.34;27.45;98546.44;5044247;28;19921;-85
2024/01/08 03:04:12;;;;;;;;;;;;;;;4.68;30.25;98553.78;5036872;28;19917;-85
2024/01/08 03:06:38;;;;;;;;;;;;;;;5.06;29.41;98553.75;5049108;28;19920;-85
2024/01/08 03:09:04;;;;;;;;;;;;;;;2.98;32.73;98562.00;5037070;28;19966;-85
2024/01/08 03:11:30;;;;;;;;;;;;;;;4.54;30.77;98558.34;5041592;28;20435;-85
2024/01/08 03:13:56;;;;;;;;;;;;;;;4.75;30.12;98559.66;5053492;28;19924;-85
2024/01/08 03:16:22;;;;;;;;;;;;;;;5.05;29.87;98557.56;5046271;28;19921;-85
2024/01/08 03:18:48;;;;;;;;;;;;;;;6.32;27.84;98563.13;5047417;28;20359;-85
2024/01/08 03:21:14;;;;;;;;;;;;;;;6.06;28.13;98568.28;5038899;28;19928;-85
2024/01/08 03:23:40;;;;;;;;;;;;;;;7.95;25.58;98556.91;5053773;28;19960;-85
2024/01/08 03:26:06;;;;;;;;;;;;;;;6.10;27.87;98566.56;5055043;28;19921;-85
2024/01/08 03:28:33;;;;;;;;;;;;;;;5.18;29.21;98571.19;5040095;28;19921;-85
2024/01/08 03:31:00;;;;;;;;;;;;;;;3.68;31.13;98576.81;5039301;28;19970;-85
2024/01/08 03:33:26;;;;;;;;;;;;;;;3.09;32.04;98571.66;5041814;28;20281;-85
2024/01/08 03:35:53;;;;;;;;;;;;;;;4.25;30.75;98567.72;5023557;28;19924;-85
2024/01/08 03:38:19;;;;;;;;;;;;;;;2.89;32.32;98577.25;5043022;28;19973;-85
2024/01/08 03:40:45;;;;;;;;;;;;;;;4.37;30.59;98578.94;5043468;28;19920;-85
2024/01/08 03:43:12;;;;;;;;;;;;;;;4.64;29.54;98579.97;5035103;28;19921;-85
2024/01/08 03:45:38;;;;;;;;;;;;;;;3.28;31.38;98588.84;5050794;28;20304;-85
2024/01/08 03:48:04;;;;;;;;;;;;;;;4.25;30.07;98586.75;5053920;28;19913;-85
2024/01/08 03:50:30;;;;;;;;;;;;;;;4.24;29.80;98588.66;5046790;28;20612;-85
2024/01/08 03:52:56;;;;;;;;;;;;;;;2.89;32.09;98594.31;5041933;28;19925;-85
2024/01/08 03:55:22;;;;;;;;;;;;;;;2.22;33.17;98602.31;5038310;28;19944;-85
2024/01/08 03:57:52;;;;;;;;;;;;;;;2.13;33.05;98604.75;5035577;28;20291;-85
2024/01/08 04:00:18;;;;;;;;;;;;;;;2.35;32.37;98612.53;5036068;28;19940;-85
2024/01/08 04:02:44;;;;;;;;;;;;;;;4.19;30.41;98605.00;5047240;28;20019;-85
2024/01/08 04:05:11;;;;;;;;;;;;;;;3.56;30.97;98601.63;5024045;28;19971;-85
2024/01/08 04:07:38;;;;;;;;;;;;;;;4.05;30.54;98602.19;5067209;28;20293;-85
2024/01/08 04:10:07;;;;;;;;;;;;;;;5.06;28.69;98600.00;5050955;28;19924;-85
2024/01/08 04:12:33;;;;;;;;;;;;;;;5.55;27.96;98603.00;5035270;28;19968;-85
2024/01/08 04:14:59;;;;;;;;;;;;;;;5.48;28.21;98610.75;5036897;28;19967;-85
2024/01/08 04:17:26;;;;;;;;;;;;;;;4.90;28.88;98611.09;5044546;28;19921;-85
2024/01/08 04:19:52;;;;;;;;;;;;;;;5.78;27.77;98625.72;5040737;28;19921;-85
2024/01/08 04:22:18;;;;;;;;;;;;;;;4.43;29.20;98622.09;5051680;28;20001;-85
2024/01/08 04:24:44;;;;;;;;;;;;;;;4.80;28.86;98615.88;5050358;28;20058;-85
2024/01/08 04:27:10;;;;;;;;;;;;;;;3.52;30.72;98621.47;5043876;28;19944;-85
2024/01/08 04:29:36;;;;;;;;;;;;;;;4.38;29.65;98621.34;5051442;28;19921;-84
2024/01/08 04:32:02;;;;;;;;;;;;;;;5.15;28.58;98625.44;5046332;28;20459;-85
2024/01/08 04:34:28;;;;;;;;;;;;;;;6.13;26.62;98623.19;5046806;28;19956;-85
2024/01/08 04:36:54;;;;;;;;;;;;;;;3.70;30.51;98627.00;5038167;28;19917;-84
2024/01/08 04:39:20;;;;;;;;;;;;;;;7.29;25.75;98623.38;5037602;28;19921;-85
2024/01/08 04:41:46;;;;;;;;;;;;;;;7.93;24.62;98627.50;5051415;28;19940;-84
2024/01/08 04:44:12;;;;;;;;;;;;;;;6.33;26.26;98635.59;5049070;28;20014;-84
2024/01/08 04:46:38;;;;;;;;;;;;;;;8.11;24.57;98634.66;5036802;28;20392;-84
2024/01/08 04:49:04;;;;;;;;;;;;;;;6.38;25.67;98640.13;5035147;28;19917;-84
2024/01/08 04:51:30;;;;;;;;;;;;;;;5.09;27.82;98651.91;5047862;28;19927;-84
2024/01/08 04:53:56;;;;;;;;;;;;;;;5.65;27.58;98656.47;5052672;28;19952;-84
2024/01/08 04:56:23;;;;;;;;;;;;;;;5.93;27.22;98658.97;5031513;28;20316;-84
2024/01/08 04:58:49;;;;;;;;;;;;;;;7.68;25.17;98648.06;5037563;28;20377;-84
2024/01/08 05:01:15;;;;;;;;;;;;;;;8.30;24.30;98646.19;5034635;28;19968;-84
2024/01/08 05:03:42;;;;;;;;;;;;;;;7.68;25.11;98661.75;5039929;28;20332;-84
2024/01/08 05:06:08;;;;;;;;;;;;;;;6.17;26.95;98658.81;5042846;28;19920;-83
2024/01/08 05:08:34;;;;;;;;;;;;;;;5.74;27.46;98663.63;5039216;28;20024;-84
2024/01/08 05:11:00;;;;;;;;;;;;;;;7.21;25.97;98664.28;5036593;28;19921;-83
2024/01/08 05:13:26;;;;;;;;;;;;;;;5.28;27.57;98662.78;5042876;28;19929;-84
2024/01/08 05:15:52;;;;;;;;;;;;;;;6.71;26.51;98682.56;5043740;28;20028;-84
2024/01/08 05:18:18;;;;;;;;;;;;;;;7.74;24.84;98680.75;5039038;28;20715;-85
2024/01/08 05:20:44;;;;;;;;;;;;;;;6.53;26.41;98681.56;5042707;28;20035;-85
2024/01/08 05:23:10;;;;;;;;;;;;;;;4.93;27.76;98685.06;5025618;28;19929;-84
2024/01/08 05:25:37;;;;;;;;;;;;;;;4.60;28.69;98684.94;5040955;28;19925;-84
2024/01/08 05:28:03;;;;;;;;;;;;;;;3.68;29.94;98688.91;5039372;28;20303;-84
2024/01/08 05:30:29;;;;;;;;;;;;;;;4.35;28.73;98701.53;5041563;28;20296;-84
2024/01/08 05:32:55;;;;;;;;;;;;;;;4.13;29.13;98706.69;5047350;28;19917;-84
2024/01/08 05:35:21;;;;;;;;;;;;;;;5.18;27.95;98696.38;5043227;28;19997;-84
2024/01/08 05:37:47;;;;;;;;;;;;;;;4.20;28.69;98699.78;5045783;28;22628;-84
2024/01/08 05:40:13;;;;;;;;;;;;;;;3.97;29.84;98703.28;5037602;28;19929;-82
2024/01/08 05:42:40;;;;;;;;;;;;;;;5.56;27.00;98703.44;5040101;28;19944;-84
2024/01/08 05:45:07;;;;;;;;;;;;;;;5.50;27.19;98709.25;5035392;28;19925;-84
2024/01/08 05:47:34;;;;;;;;;;;;;;;5.33;27.25;98707.06;5045177;28;19992;-84
2024/01/08 05:50:03;;;;;;;;;;;;;;;6.30;26.13;98711.75;5041338;28;19917;-84
2024/01/08 05:52:29;;;;;;;;;;;;;;;3.96;28.77;98719.88;5035126;28;19939;-83
2024/01/08 05:54:55;;;;;;;;;;;;;;;3.19;30.44;98731.59;5043414;28;19921;-83
2024/01/08 05:57:22;;;;;;;;;;;;;;;4.90;27.95;98725.34;5046159;28;19920;-83
2024/01/08 05:59:48;;;;;;;;;;;;;;;5.19;27.20;98721.69;5041117;28;20389;-83
2024/01/08 06:02:14;;;;;;;;;;;;;;;5.78;27.04;98730.06;5040303;28;19943;-82
2024/01/08 06:04:40;;;;;;;;;;;;;;;5.87;26.86;98741.91;5049571;28;20380;-80
2024/01/08 06:07:06;;;;;;;;;;;;;;;7.98;24.32;98727.69;5043053;28;19928;-83
2024/01/08 06:09:32;;;;;;;;;;;;;;;6.46;25.95;98743.06;5050995;28;19920;-83
2024/01/08 06:12:01;;;;;;;;;;;;;;;4.37;28.51;98744.72;5045366;28;19929;-83
2024/01/08 06:14:27;;;;;;;;;;;;;;;3.80;29.42;98759.94;5038708;28;19929;-83
2024/01/08 06:16:53;;;;;;;;;;;;;;;2.45;31.41;98767.69;5035732;28;20016;-83
2024/01/08 06:19:20;;;;;;;;;;;;;;;4.84;28.64;98752.91;5035176;28;20421;-82
2024/01/08 06:21:46;;;;;;;;;;;;;;;5.87;26.51;98760.19;5043081;28;19928;-83
2024/01/08 06:24:12;;;;;;;;;;;;;;;4.98;27.80;98761.16;5051332;28;19921;-83
2024/01/08 06:26:38;;;;;;;;;;;;;;;6.01;26.48;98770.03;5053756;28;19923;-83
2024/01/08 06:29:04;;;;;;;;;;;;;;;4.07;28.81;98775.72;5056162;28;19978;-83
2024/01/08 06:31:30;;;;;;;;;;;;;;;6.56;25.90;98775.59;5056205;28;19968;-83
2024/01/08 06:33:56;;;;;;;;;;;;;;;8.40;24.02;98772.88;5052265;28;19951;-83
2024/01/08 06:36:22;;;;;;;;;;;;;;;9.20;22.28;98772.53;5051551;28;19943;-83
2024/01/08 06:38:48;;;;;;;;;;;;;;;8.32;23.28;98775.25;5050472;28;20011;-83
2024/01/08 06:41:14;;;;;;;;;;;;;;;5.73;25.84;98781.06;5055854;28;20346;-83
2024/01/08 06:43:40;;;;;;;;;;;;;;;3.99;27.85;98790.72;5041296;28;19925;-83
2024/01/08 06:46:09;;;;;;;;;;;;;;;5.40;27.12;98796.53;5047700;28;19925;-83
2024/01/08 06:48:35;;;;;;;;;;;;;;;7.23;24.53;98798.56;5055537;28;19920;-83
2024/01/08 06:51:04;;;;;;;;;;;;;;;9.49;22.23;98783.75;5055928;28;20369;-83
2024/01/08 06:53:30;;;;;;;;;;;;;;;10.83;20.47;98782.34;5055911;28;19924;-83
2024/01/08 06:55:56;;;;;;;;;;;;;;;7.25;23.71;98802.59;5049616;28;20369;-83
2024/01/08 06:58:22;;;;;;;;;;;;;;;8.48;22.58;98802.19;5052980;28;19968;-83
2024/01/08 07:00:48;;;;;;;;;;;;;;;8.19;22.73;98802.66;5037182;28;20335;-83
2024/01/08 07:03:14;;;;;;;;;;;;;;;9.30;21.71;98802.41;5035475;28;19940;-83
2024/01/08 07:05:40;;;;;;;;;;;;;;;10.32;20.66;98799.75;5035429;28;19924;-83
2024/01/08 07:08:07;;;;;;;;;;;;;;;10.32;20.74;98797.00;5049273;28;19948;-83
2024/01/08 07:10:36;;;;;;;;;;;;;;;9.46;21.09;98806.31;5050764;28;20333;-83
2024/01/08 07:13:02;;;;;;;;;;;;;;;7.59;23.41;98824.78;5053645;28;19946;-84
2024/01/08 07:15:54;;;;;;;;;;;;;;;8.32;22.70;98815.47;5055016;28;19925;-84
2024/01/08 07:18:20;;;;;;;;;;;;;;;10.28;20.88;98812.53;5033985;28;19921;-85
2024/01/08 07:20:47;;;;;;;;;;;;;;;9.10;21.91;98819.41;5045005;28;19928;-84
2024/01/08 07:23:13;;;;;;;;;;;;;;;8.66;22.49;98826.59;5052355;28;19940;-85
2024/01/08 07:25:39;;;;;;;;;;;;;;;8.23;22.78;98834.53;5050767;28;20376;-84
2024/01/08 07:28:07;;;;;;;;;;;;;;;7.20;24.04;98851.03;5042221;28;19917;-83
2024/01/08 07:30:33;;;;;;;;;;;;;;;9.88;21.72;98838.47;5053645;28;19920;-84
2024/01/08 07:33:00;;;;;;;;;;;;;;;9.52;21.33;98838.72;5053681;28;19921;-84
2024/01/08 07:35:26;;;;;;;;;;;;;;;7.46;23.57;98854.88;5046762;28;20432;-84
2024/01/08 07:37:55;;;;;;;;;;;;;;;7.27;24.40;98857.72;5034786;28;19932;-84
2024/01/08 07:40:22;;;;;;;;;;;;;;;7.94;23.38;98866.91;5053767;28;19927;-84
2024/01/08 07:42:48;;;;;;;;;;;;;;;7.58;23.83;98860.63;5054591;28;19916;-84
2024/01/08 07:45:14;;;;;;;;;;;;;;;6.79;24.23;98867.38;5054606;28;19920;-84
2024/01/08 07:47:40;;;;;;;;;;;;;;;5.84;26.08;98869.69;5052677;28;20015;-84
2024/01/08 07:50:06;;;;;;;;;;;;;;;5.40;26.38;98875.47;5050417;28;19983;-84
2024/01/08 07:52:32;;;;;;;;;;;;;;;4.51;27.49;98885.13;5052256;28;19921;-84
2024/01/08 07:54:58;;;;;;;;;;;;;;;6.87;24.64;98872.13;5053195;28;19917;-84
2024/01/08 07:57:24;;;;;;;;;;;;;;;8.42;23.39;98880.88;5050692;28;20023;-84
2024/01/08 07:59:50;;;;;;;;;;;;;;;7.85;23.33;98885.16;5052721;28;20009;-84
2024/01/08 08:02:16;;;;;;;;;;;;;;;8.44;23.01;98886.03;5053185;28;20015;-84
2024/01/08 08:04:42;;;;;;;;;;;;;;;8.37;22.82;98889.19;5054491;28;19967;-84
2024/01/08 08:07:08;;;;;;;;;;;;;;;9.43;21.59;98889.13;5049571;28;19989;-88
2024/01/08 08:09:34;;;;;;;;;;;;;;;10.46;20.92;98883.84;5050623;28;20003;-83
2024/01/08 08:12:00;;;;;;;;;;;;;;;12.99;18.75;98879.53;5053183;28;19928;-84
2024/01/08 08:14:26;;;;;;;;;;;;;;;12.90;18.42;98893.41;5041212;28;19933;-83
2024/01/08 08:16:53;;;;;;;;;;;;;;;11.52;19.23;98901.03;5051703;28;19924;-83
2024/01/08 08:19:19;;;;;;;;;;;;;;;10.74;19.83;98907.06;5051907;28;19947;-83
2024/01/08 08:21:46;;;;;;;;;;;;;;;8.44;22.49;98918.84;5051632;28;19967;-84
2024/01/08 08:24:12;;;;;;;;;;;;;;;7.12;24.30;98920.00;5051545;28;19967;-84
2024/01/08 08:26:38;;;;;;;;;;;;;;;5.16;25.89;98937.28;5034840;28;20292;-83
2024/01/08 08:29:04;;;;;;;;;;;;;;;5.72;25.94;98935.50;5050130;28;19921;-83
2024/01/08 08:31:30;;;;;;;;;;;;;;;4.66;27.18;98946.72;5052018;28;19924;-83
2024/01/08 08:33:56;;;;;;;;;;;;;;;7.29;24.00;98936.59;5051716;28;20320;-83
2024/01/08 08:36:22;;;;;;;;;;;;;;;6.65;25.40;98941.00;5052520;28;19917;-83
2024/01/08 08:38:48;;;;;;;;;;;;;;;4.87;26.65;98950.88;5049993;28;19924;-83
2024/01/08 08:41:15;;;;;;;;;;;;;;;4.99;26.63;98955.94;5049540;28;19921;-83
2024/01/08 08:43:41;;;;;;;;;;;;;;;5.35;26.52;98949.03;5038870;28;19921;-83
2024/01/08 08:46:07;;;;;;;;;;;;;;;3.37;28.58;98965.13;5052286;28;19928;-83
2024/01/08 08:48:33;;;;;;;;;;;;;;;3.66;28.82;98965.28;5051502;28;19924;-83
2024/01/08 08:50:59;;;;;;;;;;;;;;;6.39;25.71;98961.59;5052292;28;20050;-83
2024/01/08 08:53:25;;;;;;;;;;;;;;;7.50;23.45;98954.22;5051172;28;19931;-84
2024/01/08 08:55:52;;;;;;;;;;;;;;;7.61;23.28;98952.88;5051932;28;19928;-83
2024/01/08 08:58:18;;;;;;;;;;;;;;;4.78;26.56;98963.47;5049648;28;19917;-83
2024/01/08 09:00:43;;;;;;;;;;;;;;;3.63;29.47;98970.44;5041595;28;20391;-84
2024/01/08 09:03:10;;;;;;;;;;;;;;;3.50;29.19;98978.09;5048512;28;20020;-83
2024/01/08 09:05:36;;;;;;;;;;;;;;;5.67;26.77;98973.69;5051901;28;19916;-83
2024/01/08 09:08:02;;;;;;;;;;;;;;;4.42;27.86;98979.25;5052062;28;19920;-83
2024/01/08 09:10:28;;;;;;;;;;;;;;;4.70;27.38;98981.22;5050961;28;20327;-84
2024/01/08 09:12:54;;;;;;;;;;;;;;;5.57;26.58;98979.28;5049166;28;19936;-83
2024/01/08 09:15:20;;;;;;;;;;;;;;;5.82;26.08;98980.88;5041641;28;20008;-83
2024/01/08 09:17:46;;;;;;;;;;;;;;;4.85;27.75;98989.22;5044750;28;20565;-83
2024/01/08 09:20:12;;;;;;;;;;;;;;;6.85;25.81;98978.88;5043593;28;19921;-83
2024/01/08 09:22:39;;;;;;;;;;;;;;;7.53;24.52;98980.94;5050083;28;19961;-84
2024/01/08 09:25:06;;;;;;;;;;;;;;;6.40;25.90;98986.94;5051754;28;19920;-83
2024/01/08 09:27:32;;;;;;;;;;;;;;;7.89;23.83;98981.84;5043888;28;20426;-84
2024/01/08 09:29:59;;;;;;;;;;;;;;;8.25;23.61;98976.44;5051588;28;19924;-84
2024/01/08 09:32:25;;;;;;;;;;;;;;;7.13;24.50;98981.66;5041921;28;19921;-84
2024/01/08 09:34:51;;;;;;;;;;;;;;;4.88;27.86;98994.13;5056984;28;20028;-84
2024/01/08 09:37:19;;;;;;;;;;;;;;;5.97;26.50;98989.72;5044215;28;19959;-84
2024/01/08 09:39:45;;;;;;;;;;;;;;;6.92;26.24;98986.66;5056361;28;19928;-83
2024/01/08 09:42:11;;;;;;;;;;;;;;;6.53;26.22;98991.66;5049815;28;19920;-83
2024/01/08 09:44:40;;;;;;;;;;;;;;;9.55;22.55;98977.06;5051943;28;19936;-84
2024/01/08 09:47:07;;;;;;;;;;;;;;;6.40;24.26;98985.03;5051247;28;20358;-85
2024/01/08 09:49:34;;;;;;;;;;;;;;;5.19;26.95;98999.28;5056072;28;19917;-84
2024/01/08 09:52:04;;;;;;;;;;;;;;;6.20;25.78;98988.88;5056783;28;20377;-84
2024/01/08 09:54:31;;;;;;;;;;;;;;;7.40;24.74;98981.72;5056588;28;19916;-84
2024/01/08 09:56:58;;;;;;;;;;;;;;;10.29;20.85;98972.50;5048891;28;20403;-84
2024/01/08 09:59:24;;;;;;;;;;;;;;;8.92;22.52;98980.06;5056341;28;19924;-86
2024/01/08 10:01:50;;;;;;;;;;;;;;;8.37;22.50;98982.22;5055714;28;19921;-83
2024/01/08 10:04:16;;;;;;;;;;;;;;;6.31;25.07;98989.53;5056087;28;19924;-84
2024/01/08 10:06:46;;;;;;;;;;;;;;;6.44;25.46;98980.59;5049486;28;19924;-85
2024/01/08 10:09:12;;;;;;;;;;;;;;;9.82;22.08;98979.59;5052178;28;19924;-84
2024/01/08 10:11:39;;;;;;;;;;;;;;;11.05;20.26;98981.84;5045481;28;19921;-84
2024/01/08 10:14:08;;;;;;;;;;;;;;;10.53;21.30;98975.56;5042085;28;19967;-84
2024/01/08 10:16:34;;;;;;;;;;;;;;;8.43;22.09;98988.34;5039458;28;19943;-84
2024/01/08 10:19:00;;;;;;;;;;;;;;;5.62;26.52;98989.31;5040968;28;19924;-84
2024/01/08 10:21:26;;;;;;;;;;;;;;;5.89;26.20;98997.72;5045869;28;19913;-83
2024/01/08 10:24:06;;;;;;;;;;;;;;;6.09;26.36;98994.75;5045576;28;19918;-83
2024/01/08 10:26:32;;;;;;;;;;;;;;;6.64;25.50;98998.59;5036332;28;19940;-84
2024/01/08 10:28:58;;;;;;;;;;;;;;;7.25;24.66;98995.66;5045853;28;20377;-83
2024/01/08 10:31:24;;;;;;;;;;;;;;;7.10;25.15;99001.38;5055445;28;19928;-84
2024/01/08 10:33:50;;;;;;;;;;;;;;;9.30;22.51;99000.47;5056287;28;19920;-84
2024/01/08 10:36:16;;;;;;;;;;;;;;;7.51;24.27;99003.06;5055653;28;19956;-84
2024/01/08 10:38:43;;;;;;;;;;;;;;;5.78;25.28;99004.38;5056424;28;19917;-84
2024/01/08 10:41:11;;;;;;;;;;;;;;;6.43;25.72;99003.53;5043516;28;20027;-84
2024/01/08 10:43:37;;;;;;;;;;;;;;;6.61;25.46;99005.44;5055940;28;19925;-84
2024/01/08 10:46:04;;;;;;;;;;;;;;;7.38;24.42;99003.06;5055659;28;19921;-84
2024/01/08 10:48:38;;;;;;;;;;;;;;;8.43;22.99;98989.16;5056073;28;19963;-84
2024/01/08 10:51:05;;;;;;;;;;;;;;;10.23;20.62;98988.28;5035418;28;20373;-85
2024/01/08 10:53:43;;;;;;;;;;;;;;;9.95;21.03;98988.81;5047887;28;19917;-84
2024/01/08 10:56:16;;;;;;;;;;;;;;;9.23;21.10;98985.59;5055633;28;19917;-84
2024/01/08 10:59:02;;;;;;;;;;;;;;;8.17;23.27;98999.84;5038354;28;19940;-84
2024/01/08 11:01:31;;;;;;;;;;;;;;;9.25;21.28;98997.84;5035562;28;20249;-84
2024/01/08 11:03:59;;;;;;;;;;;;;;;8.28;22.30;99001.25;5052867;28;20273;-84
2024/01/08 11:06:28;;;;;;;;;;;;;;;10.12;20.37;98995.22;5041514;28;19921;-85
2024/01/08 11:08:55;;;;;;;;;;;;;;;11.56;19.19;98991.91;5049089;28;20011;-85
2024/01/08 11:11:22;;;;;;;;;;;;;;;13.42;17.31;98992.16;5054274;28;19962;-84
2024/01/08 11:13:48;;;;;;;;;;;;;;;11.50;18.90;98987.75;5054814;28;20077;-84
2024/01/08 11:16:19;;;;;;;;;;;;;;;12.32;18.70;98996.28;5055315;28;20019;-85
2024/01/08 11:18:45;;;;;;;;;;;;;;;13.24;17.56;98993.47;5051154;28;20262;-84
2024/01/08 11:21:11;;;;;;;;;;;;;;;14.70;16.17;98990.50;5055106;28;19923;-85
2024/01/08 11:23:43;;;;;;;;;;;;;;;15.67;15.49;98985.34;5054972;28;20361;-84
2024/01/08 11:26:21;;;;;;;;;;;;;;;13.78;16.79;98989.47;5054907;28;19924;-85
2024/01/08 11:28:59;;;;;;;;;;;;;;;8.84;21.56;99008.22;5038815;28;19964;-84
2024/01/08 11:31:44;;;;;;;;;;;;;;;7.73;22.80;99012.50;5044242;28;20373;-85
2024/01/08 11:34:16;;;;;;;;;;;;;;;7.27;23.81;99010.63;5034721;28;19924;-85
2024/01/08 11:36:47;;;;;;;;;;;;;;;11.50;19.55;99005.06;5041216;28;19931;-84
2024/01/08 11:39:19;;;;;;;;;;;;;;;12.68;17.73;99003.97;5053951;28;20059;-84
2024/01/08 11:41:46;;;;;;;;;;;;;;;10.67;20.67;99013.84;5062275;28;20376;-86
2024/01/08 11:44:15;;;;;;;;;;;;;;;9.02;21.33;99032.66;5049846;28;20282;-87
2024/01/08 11:46:42;;;;;;;;;;;;;;;8.47;22.45;99031.22;5048791;28;20259;-86
2024/01/08 11:49:08;;;;;;;;;;;;;;;6.52;24.69;99039.13;5039682;28;19921;-87
2024/01/08 11:51:35;;;;;;;;;;;;;;;7.63;23.61;99036.19;5047920;28;20304;-86
2024/01/08 11:54:04;;;;;;;;;;;;;;;9.56;21.61;99037.06;5042409;28;19944;-88
2024/01/08 11:56:30;;;;;;;;;;;;;;;9.70;20.63;99045.19;5035849;28;19963;-87
2024/01/08 11:58:56;;;;;;;;;;;;;;;10.71;19.87;99037.59;5025913;28;19925;-87
2024/01/08 12:01:22;;;;;;;;;;;;;;;11.41;19.35;99039.19;5044597;28;19921;-89
2024/01/08 12:03:48;;;;;;;;;;;;;;;14.81;16.15;99029.50;5054599;28;19960;-86
2024/01/08 12:06:14;;;;;;;;;;;;;;;16.51;15.16;99027.44;5049578;28;19943;-87
2024/01/08 12:08:40;;;;;;;;;;;;;;;14.80;16.02;99030.63;5049828;28;20380;-86
2024/01/08 12:11:06;;;;;;;;;;;;;;;9.87;20.84;99042.50;5053900;28;19924;-87
2024/01/08 12:13:32;;;;;;;;;;;;;;;10.58;20.47;99045.97;5043480;28;20454;-87
2024/01/08 12:15:58;;;;;;;;;;;;;;;8.71;22.32;99058.31;5039050;28;19933;-86
2024/01/08 12:18:24;;;;;;;;;;;;;;;8.87;23.39;99065.88;5043752;28;19921;-86
2024/01/08 12:20:50;;;;;;;;;;;;;;;9.05;21.88;99064.91;5051830;28;19932;-88
2024/01/08 12:23:16;;;;;;;;;;;;;;;8.69;21.97;99066.03;5044476;28;19966;-89
2024/01/08 12:25:47;;;;;;;;;;;;;;;8.24;22.71;99071.34;5045222;28;20015;-88
2024/01/08 12:28:13;;;;;;;;;;;;;;;8.81;21.56;99067.13;5026682;28;20404;-87
2024/01/08 12:30:39;;;;;;;;;;;;;;;10.26;20.80;99067.22;5045307;28;20046;-88
2024/01/08 12:33:05;;;;;;;;;;;;;;;11.34;19.15;99063.63;5052374;28;19920;-88
2024/01/08 12:35:31;;;;;;;;;;;;;;;9.12;21.65;99078.19;5053914;28;19924;-91
2024/01/08 12:37:57;;;;;;;;;;;;;;;11.27;19.38;99069.59;5049080;28;19924;-90
2024/01/08 12:40:23;;;;;;;;;;;;;;;8.38;22.50;99085.03;5041200;28;19921;-87
2024/01/08 12:42:49;;;;;;;;;;;;;;;9.25;21.54;99079.22;5039553;28;19921;-87
2024/01/08 12:45:15;;;;;;;;;;;;;;;11.24;19.56;99075.75;5050474;28;20075;-87
2024/01/08 12:47:41;;;;;;;;;;;;;;;14.13;17.42;99083.69;5033350;28;19920;-88
2024/01/08 12:50:07;;;;;;;;;;;;;;;11.02;19.74;99084.97;5047441;28;19920;-89
2024/01/08 12:52:33;;;;;;;;;;;;;;;8.94;21.06;99101.03;5027054;28;19974;-86